createdAt,value
2018-09-19T00:02:03.798Z,7.17
2018-09-19T00:04:32.106Z,7.22
2018-09-19T00:07:00.234Z,7.55
2018-09-19T00:09:28.261Z,5.95
2018-09-19T00:11:56.349Z,7.47
2018-09-19T00:14:24.395Z,6.40
2018-09-19T00:16:52.367Z,6.10
2018-09-19T00:19:20.581Z,6.70
2018-09-19T00:21:48.636Z,6.75
2018-09-19T00:24:16.733Z,6.17
2018-09-19T00:26:44.711Z,4.83
2018-09-19T00:29:12.932Z,5.87
2018-09-19T00:31:40.845Z,6.47
2018-09-19T00:34:08.945Z,6.20
2018-09-19T00:36:36.943Z,6.12
2018-09-19T00:39:06.682Z,6.95
2018-09-19T00:41:34.757Z,6.33
2018-09-19T00:44:02.789Z,5.10
2018-09-19T00:46:30.898Z,6.15
2018-09-19T00:48:59.784Z,5.87
2018-09-19T00:51:27.955Z,6.10
2018-09-19T00:53:55.931Z,4.95
2018-09-19T00:56:23.968Z,5.65
2018-09-19T00:58:52.170Z,5.97
2018-09-19T01:01:20.275Z,5.22
2018-09-19T01:03:48.950Z,5.47
2018-09-19T01:06:17.929Z,5.95
2018-09-19T01:08:45.942Z,5.33
2018-09-19T01:11:13.933Z,5.00
2018-09-19T01:13:42.022Z,5.28
2018-09-19T01:16:10.240Z,5.47
2018-09-19T01:18:38.537Z,5.25
2018-09-19T01:21:07.676Z,4.97
2018-09-19T01:23:35.973Z,5.15
2018-09-19T01:26:04.074Z,5.42
2018-09-19T01:28:32.919Z,4.72
2018-09-19T01:31:01.133Z,5.20
2018-09-19T01:33:29.122Z,5.65
2018-09-19T01:35:58.062Z,5.00
2018-09-19T01:38:26.196Z,4.95
2018-09-19T01:40:54.265Z,5.12
2018-09-19T01:43:22.398Z,5.08
2018-09-19T01:45:50.681Z,5.08
2018-09-19T01:48:18.870Z,4.80
2018-09-19T01:50:47.179Z,4.90
2018-09-19T01:53:15.221Z,5.33
2018-09-19T01:55:43.248Z,4.60
2018-09-19T01:58:11.212Z,5.05
2018-09-19T02:00:40.347Z,5.50
2018-09-19T02:03:09.352Z,4.65
2018-09-19T02:05:37.380Z,5.72
2018-09-19T02:08:05.680Z,4.55
2018-09-19T02:10:33.886Z,5.50
2018-09-19T02:13:01.942Z,5.45
2018-09-19T02:15:29.988Z,5.05
2018-09-19T02:17:58.123Z,5.10
2018-09-19T02:20:26.193Z,5.30
2018-09-19T02:22:55.464Z,5.30
2018-09-19T02:25:23.505Z,5.28
2018-09-19T02:27:52.694Z,5.37
2018-09-19T02:30:20.893Z,5.00
2018-09-19T02:32:48.922Z,5.15
2018-09-19T02:35:17.183Z,5.55
2018-09-19T02:37:45.026Z,5.87
2018-09-19T02:40:13.247Z,5.25
2018-09-19T02:42:41.689Z,4.92
2018-09-19T02:45:09.935Z,7.00
2018-09-19T02:47:38.047Z,5.75
2018-09-19T02:50:06.160Z,5.47
2018-09-19T02:52:34.445Z,5.45
2018-09-19T02:55:02.489Z,5.22
2018-09-19T02:57:30.813Z,5.37
2018-09-19T02:59:59.001Z,5.95
2018-09-19T03:02:27.181Z,5.40
2018-09-19T03:04:55.515Z,6.12
2018-09-19T03:07:23.879Z,5.60
2018-09-19T03:09:51.881Z,5.70
2018-09-19T03:12:19.960Z,6.40
2018-09-19T03:14:47.986Z,5.78
2018-09-19T03:17:16.157Z,5.78
2018-09-19T03:19:44.173Z,6.03
2018-09-19T03:22:12.287Z,6.40
2018-09-19T03:24:40.277Z,6.30
2018-09-19T03:27:08.268Z,5.97
2018-09-19T03:29:36.492Z,6.55
2018-09-19T03:32:04.558Z,6.45
2018-09-19T03:34:33.779Z,6.95
2018-09-19T03:37:01.987Z,7.35
2018-09-19T03:39:30.269Z,7.22
2018-09-19T03:41:58.285Z,7.83
2018-09-19T03:44:26.469Z,7.72
2018-09-19T03:46:55.336Z,7.53
2018-09-19T03:49:23.431Z,7.17
2018-09-19T03:51:51.703Z,7.25
2018-09-19T03:54:19.543Z,7.22
2018-09-19T03:56:47.304Z,7.70
2018-09-19T03:59:15.380Z,8.05
2018-09-19T04:01:43.529Z,8.40
2018-09-19T04:04:11.611Z,8.48
2018-09-19T04:06:39.651Z,10.93
2018-09-19T04:09:10.561Z,8.90
2018-09-19T04:11:40.620Z,10.28
2018-09-19T04:14:09.917Z,8.40
2018-09-19T04:16:38.536Z,8.50
2018-09-19T04:19:06.905Z,9.03
2018-09-19T04:21:34.818Z,8.80
2018-09-19T04:24:03.024Z,7.50
2018-09-19T04:26:31.393Z,7.35
2018-09-19T04:28:59.333Z,8.25
2018-09-19T04:31:27.799Z,8.83
2018-09-19T04:33:55.881Z,9.40
2018-09-19T04:36:24.650Z,9.40
2018-09-19T04:38:52.903Z,10.60
2018-09-19T04:41:21.006Z,10.10
2018-09-19T04:43:49.001Z,9.73
2018-09-19T04:46:17.096Z,9.70
2018-09-19T04:48:44.979Z,11.83
2018-09-19T04:51:13.344Z,12.23
2018-09-19T04:53:41.644Z,12.93
2018-09-19T04:56:09.698Z,12.70
2018-09-19T04:58:37.932Z,12.93
2018-09-19T05:01:06.118Z,12.85
2018-09-19T05:03:34.197Z,11.65
2018-09-19T05:06:02.294Z,10.93
2018-09-19T05:08:30.818Z,12.30
2018-09-19T05:10:59.488Z,12.43
2018-09-19T05:13:27.487Z,10.63
2018-09-19T05:15:55.459Z,10.88
2018-09-19T05:18:23.569Z,11.53
2018-09-19T05:20:51.682Z,10.30
2018-09-19T05:23:20.137Z,11.00
2018-09-19T05:25:48.416Z,10.43
2018-09-19T05:28:16.434Z,11.28
2018-09-19T05:30:44.481Z,10.90
2018-09-19T05:33:12.973Z,10.98
2018-09-19T05:35:40.901Z,9.75
2018-09-19T05:38:09.965Z,10.60
2018-09-19T05:40:38.066Z,13.40
2018-09-19T05:43:06.190Z,11.63
2018-09-19T05:45:34.517Z,11.57
2018-09-19T05:48:02.623Z,11.78
2018-09-19T05:50:30.654Z,13.78
2018-09-19T05:52:58.702Z,12.68
2018-09-19T05:55:26.795Z,13.43
2018-09-19T05:57:54.894Z,13.93
2018-09-19T06:00:25.027Z,11.90
2018-09-19T06:02:53.035Z,12.43
2018-09-19T06:05:21.203Z,11.33
2018-09-19T06:07:49.361Z,11.50
2018-09-19T06:10:17.714Z,11.75
2018-09-19T06:12:45.779Z,10.88
2018-09-19T06:15:13.869Z,9.28
2018-09-19T06:17:41.942Z,10.60
2018-09-19T06:20:09.940Z,9.95
2018-09-19T06:22:37.932Z,8.85
2018-09-19T06:25:06.554Z,8.75
2018-09-19T06:27:34.809Z,8.80
2018-09-19T06:30:02.877Z,7.50
2018-09-19T06:32:32.145Z,7.35
2018-09-19T06:35:00.298Z,7.55
2018-09-19T06:37:28.602Z,7.22
2018-09-19T06:39:56.755Z,7.00
2018-09-19T06:42:25.056Z,6.80
2018-09-19T06:44:53.172Z,7.30
2018-09-19T06:47:21.281Z,7.57
2018-09-19T06:49:49.566Z,5.60
2018-09-19T06:52:17.666Z,6.10
2018-09-19T06:54:45.763Z,5.87
2018-09-19T06:57:13.946Z,6.43
2018-09-19T06:59:42.229Z,5.77
2018-09-19T07:02:10.304Z,6.23
2018-09-19T07:04:38.496Z,6.80
2018-09-19T07:07:06.734Z,6.03
2018-09-19T07:09:34.773Z,5.80
2018-09-19T07:12:02.773Z,5.50
2018-09-19T07:14:30.874Z,5.50
2018-09-19T07:16:58.873Z,5.03
2018-09-19T07:19:27.056Z,5.13
2018-09-19T07:21:55.105Z,5.77
2018-09-19T07:24:23.251Z,5.30
2018-09-19T07:26:51.307Z,4.60
2018-09-19T07:29:19.224Z,4.70
2018-09-19T07:31:47.313Z,5.30
2018-09-19T07:34:15.520Z,4.50
2018-09-19T07:36:43.498Z,4.87
2018-09-19T07:39:12.015Z,4.27
2018-09-19T07:41:39.927Z,4.87
2018-09-19T07:44:08.543Z,4.13
2018-09-19T07:46:36.879Z,4.43
2018-09-19T07:49:04.672Z,4.10
2018-09-19T07:51:32.907Z,4.87
2018-09-19T07:54:01.007Z,4.20
2018-09-19T07:56:29.074Z,5.10
2018-09-19T07:58:57.112Z,4.67
2018-09-19T08:01:25.157Z,5.13
2018-09-19T08:03:54.223Z,4.73
2018-09-19T08:06:22.218Z,5.80
2018-09-19T08:08:50.407Z,5.43
2018-09-19T08:11:18.671Z,5.97
2018-09-19T08:13:46.742Z,6.03
2018-09-19T08:16:14.896Z,4.80
2018-09-19T08:18:42.912Z,5.60
2018-09-19T08:21:10.993Z,5.83
2018-09-19T08:23:39.845Z,6.20
2018-09-19T08:26:08.073Z,5.50
2018-09-19T08:28:36.199Z,5.87
2018-09-19T08:31:04.087Z,5.00
2018-09-19T08:33:32.165Z,5.23
2018-09-19T08:35:59.911Z,6.30
2018-09-19T08:38:27.954Z,6.30
2018-09-19T08:40:56.190Z,6.03
2018-09-19T08:43:24.260Z,5.40
2018-09-19T08:45:52.321Z,5.60
2018-09-19T08:48:20.388Z,6.10
2018-09-19T08:50:48.919Z,5.57
2018-09-19T08:53:16.896Z,5.60
2018-09-19T08:55:44.793Z,5.47
2018-09-19T08:58:13.057Z,5.40
2018-09-19T09:00:41.085Z,5.33
2018-09-19T09:03:09.165Z,5.70
2018-09-19T09:05:37.502Z,6.37
2018-09-19T09:08:05.307Z,7.53
2018-09-19T09:10:33.249Z,6.40
2018-09-19T09:13:01.301Z,6.00
2018-09-19T09:15:29.460Z,7.37
2018-09-19T09:17:57.491Z,7.87
2018-09-19T09:20:25.576Z,7.50
2018-09-19T09:22:53.735Z,7.17
2018-09-19T09:25:21.789Z,7.60
2018-09-19T09:27:50.041Z,7.40
2018-09-19T09:30:18.203Z,7.00
2018-09-19T09:32:46.272Z,7.20
2018-09-19T09:35:14.348Z,7.60
2018-09-19T09:37:42.375Z,6.90
2018-09-19T09:40:13.645Z,6.90
2018-09-19T09:42:41.629Z,7.20
2018-09-19T09:45:09.694Z,6.03
2018-09-19T09:47:37.875Z,6.20
2018-09-19T09:50:05.886Z,7.50
2018-09-19T09:52:33.905Z,6.43
2018-09-19T09:55:02.028Z,7.03
2018-09-19T09:57:30.949Z,6.87
2018-09-19T09:59:58.959Z,6.43
2018-09-19T10:02:27.032Z,6.20
2018-09-19T10:04:55.174Z,5.90
2018-09-19T10:07:23.279Z,6.80
2018-09-19T10:09:51.722Z,7.10
2018-09-19T10:12:20.109Z,5.43
2018-09-19T10:14:48.417Z,5.10
2018-09-19T10:17:16.516Z,4.80
2018-09-19T10:19:44.524Z,5.70
2018-09-19T10:22:13.548Z,5.17
2018-09-19T10:24:41.612Z,5.70
2018-09-19T10:27:09.747Z,5.10
2018-09-19T10:29:38.159Z,5.17
2018-09-19T10:32:06.527Z,5.00
2018-09-19T10:34:34.863Z,5.93
2018-09-19T10:37:02.788Z,5.47
2018-09-19T10:39:30.926Z,5.33
2018-09-19T10:41:58.782Z,5.13
2018-09-19T10:44:26.689Z,5.30
2018-09-19T10:46:54.876Z,5.47
2018-09-19T10:49:23.036Z,5.90
2018-09-19T10:51:50.953Z,5.37
2018-09-19T10:54:19.165Z,5.30
2018-09-19T10:56:47.136Z,6.37
2018-09-19T10:59:15.121Z,6.40
2018-09-19T11:01:43.288Z,5.60
2018-09-19T11:04:11.441Z,5.80
2018-09-19T11:06:39.737Z,5.90
2018-09-19T11:09:10.015Z,6.43
2018-09-19T11:11:38.286Z,5.53
2018-09-19T11:14:06.408Z,5.47
2018-09-19T11:16:34.477Z,5.43
2018-09-19T11:19:02.510Z,4.70
2018-09-19T11:21:30.743Z,5.10
2018-09-19T11:23:58.782Z,4.77
2018-09-19T11:26:27.185Z,4.60
2018-09-19T11:28:57.213Z,5.10
2018-09-19T11:31:25.388Z,5.60
2018-09-19T11:33:53.415Z,5.50
2018-09-19T11:36:21.533Z,5.57
2018-09-19T11:38:49.579Z,4.87
2018-09-19T11:41:17.666Z,5.00
2018-09-19T11:43:45.958Z,4.63
2018-09-19T11:46:14.065Z,5.63
2018-09-19T11:48:42.210Z,6.17
2018-09-19T11:51:12.292Z,6.00
2018-09-19T11:53:40.408Z,5.10
2018-09-19T11:56:08.516Z,5.57
2018-09-19T11:58:36.593Z,5.70
2018-09-19T12:01:04.744Z,5.67
2018-09-19T12:03:32.655Z,5.50
2018-09-19T12:06:00.730Z,5.50
2018-09-19T12:08:28.777Z,6.03
2018-09-19T12:10:56.960Z,5.93
2018-09-19T12:13:24.705Z,5.20
2018-09-19T12:15:52.897Z,4.80
2018-09-19T12:18:21.174Z,4.80
2018-09-19T12:20:49.276Z,5.80
2018-09-19T12:23:17.324Z,5.40
2018-09-19T12:25:45.368Z,5.83
2018-09-19T12:28:18.972Z,5.83
2018-09-19T12:30:47.050Z,5.80
2018-09-19T12:33:15.181Z,6.97
2018-09-19T12:35:43.148Z,6.10
2018-09-19T12:38:11.270Z,5.60
2018-09-19T12:40:39.314Z,5.87
2018-09-19T12:43:07.415Z,5.70
2018-09-19T12:45:36.717Z,5.80
2018-09-19T12:48:05.286Z,6.70
2018-09-19T12:50:33.634Z,6.00
2018-09-19T12:53:02.754Z,6.27
2018-09-19T12:55:30.928Z,7.10
2018-09-19T12:57:58.764Z,5.70
2018-09-19T13:00:26.619Z,5.83
2018-09-19T13:02:54.638Z,6.10
2018-09-19T13:05:22.847Z,6.33
2018-09-19T13:07:50.909Z,6.33
2018-09-19T13:10:18.995Z,6.40
2018-09-19T13:12:47.035Z,7.00
2018-09-19T13:15:14.820Z,5.77
2018-09-19T13:17:42.945Z,5.77
2018-09-19T13:20:11.255Z,5.53
2018-09-19T13:22:39.259Z,5.57
2018-09-19T13:25:07.395Z,6.53
2018-09-19T13:27:35.486Z,6.10
2018-09-19T13:30:03.611Z,5.50
2018-09-19T13:32:31.889Z,5.73
2018-09-19T13:35:00.000Z,5.37
2018-09-19T13:37:28.050Z,5.57
2018-09-19T13:39:56.274Z,6.50
2018-09-19T13:42:24.074Z,6.60
2018-09-19T13:44:52.249Z,6.50
2018-09-19T13:47:20.399Z,6.93
2018-09-19T13:49:56.132Z,7.40
2018-09-19T13:52:24.483Z,6.53
2018-09-19T13:54:52.416Z,6.63
2018-09-19T13:57:20.497Z,6.50
2018-09-19T13:59:48.664Z,6.03
2018-09-19T14:02:16.669Z,6.30
2018-09-19T14:04:44.910Z,6.80
2018-09-19T14:07:12.964Z,7.77
2018-09-19T14:09:40.893Z,7.67
2018-09-19T14:12:09.118Z,7.00
2018-09-19T14:14:37.467Z,7.30
2018-09-19T14:17:05.587Z,6.93
2018-09-19T14:19:33.841Z,7.23
2018-09-19T14:22:02.784Z,7.10
2018-09-19T14:24:30.889Z,6.27
2018-09-19T14:26:59.031Z,6.60
2018-09-19T14:29:27.229Z,6.20
2018-09-19T14:31:55.283Z,5.37
2018-09-19T14:34:24.321Z,5.83
2018-09-19T14:36:52.611Z,5.10
2018-09-19T14:39:20.468Z,5.70
2018-09-19T14:41:48.646Z,6.10
2018-09-19T14:44:20.909Z,6.00
2018-09-19T14:46:49.090Z,5.20
2018-09-19T14:49:17.196Z,5.47
2018-09-19T14:51:45.257Z,5.27
2018-09-19T14:54:13.186Z,4.33
2018-09-19T14:56:41.384Z,4.40
2018-09-19T14:59:09.456Z,5.10
2018-09-19T15:01:37.494Z,4.90
2018-09-19T15:04:05.549Z,5.13
2018-09-19T15:06:33.645Z,4.87
2018-09-19T15:09:01.690Z,5.40
2018-09-19T15:11:29.832Z,5.10
2018-09-19T15:13:57.854Z,4.73
2018-09-19T15:16:25.858Z,5.93
2018-09-19T15:18:53.995Z,5.00
2018-09-19T15:21:22.094Z,5.80
2018-09-19T15:23:50.138Z,5.40
2018-09-19T15:26:18.222Z,5.40
2018-09-19T15:28:46.273Z,6.00
2018-09-19T15:31:14.318Z,5.50
2018-09-19T15:33:42.540Z,5.13
2018-09-19T15:36:10.898Z,4.30
2018-09-19T15:38:39.213Z,5.30
2018-09-19T15:41:07.344Z,5.00
2018-09-19T15:43:35.760Z,4.77
2018-09-19T15:46:03.626Z,4.83
2018-09-19T15:48:31.767Z,4.80
2018-09-19T15:50:59.765Z,4.77
2018-09-19T15:53:30.897Z,5.27
2018-09-19T15:55:59.943Z,5.10
2018-09-19T15:58:28.007Z,4.90
2018-09-19T16:00:58.311Z,4.80
2018-09-19T16:03:26.835Z,4.57
2018-09-19T16:05:54.685Z,4.67
2018-09-19T16:08:23.269Z,4.07
2018-09-19T16:10:51.503Z,5.17
2018-09-19T16:13:19.590Z,5.13
2018-09-19T16:15:47.996Z,4.97
2018-09-19T16:18:16.052Z,5.17
2018-09-19T16:20:44.339Z,4.40
2018-09-19T16:23:12.689Z,4.83
2018-09-19T16:25:40.845Z,4.53
2018-09-19T16:28:09.996Z,4.50
2018-09-19T16:30:38.254Z,4.83
2018-09-19T16:33:06.303Z,4.60
2018-09-19T16:35:34.347Z,5.33
2018-09-19T16:38:02.579Z,4.63
2018-09-19T16:40:30.408Z,4.70
2018-09-19T16:42:58.572Z,5.53
2018-09-19T16:45:26.682Z,5.87
2018-09-19T16:47:54.781Z,5.03
2018-09-19T16:50:23.129Z,6.23
2018-09-19T16:52:51.195Z,5.27
2018-09-19T16:55:19.554Z,5.33
2018-09-19T16:57:47.543Z,5.37
2018-09-19T17:00:15.965Z,5.10
2018-09-19T17:02:44.419Z,4.70
2018-09-19T17:05:12.954Z,4.80
2018-09-19T17:07:41.057Z,5.17
2018-09-19T17:10:09.706Z,5.93
2018-09-19T17:12:37.929Z,5.90
2018-09-19T17:15:05.750Z,6.00
2018-09-19T17:17:33.653Z,5.20
2018-09-19T17:20:01.789Z,5.37
2018-09-19T17:22:29.748Z,5.90
2018-09-19T17:24:57.867Z,5.70
2018-09-19T17:27:26.038Z,7.53
2018-09-19T17:29:54.102Z,6.63
2018-09-19T17:32:22.289Z,6.10
2018-09-19T17:34:50.256Z,7.37
2018-09-19T17:37:18.307Z,7.00
2018-09-19T17:39:46.259Z,7.00
2018-09-19T17:42:14.430Z,7.13
2018-09-19T17:44:42.521Z,6.90
2018-09-19T17:47:10.693Z,7.27
2018-09-19T17:49:38.947Z,7.80
2018-09-19T17:52:06.982Z,8.23
2018-09-19T17:54:35.180Z,7.50
2018-09-19T17:57:03.577Z,7.53
2018-09-19T17:59:31.471Z,8.87
2018-09-19T18:01:59.683Z,8.67
2018-09-19T18:04:27.742Z,8.27
2018-09-19T18:06:55.733Z,8.00
2018-09-19T18:09:24.149Z,8.13
2018-09-19T18:11:52.255Z,8.58
2018-09-19T18:14:21.146Z,8.20
2018-09-19T18:17:52.425Z,8.70
2018-09-19T18:20:20.676Z,8.78
2018-09-19T18:22:48.697Z,9.33
2018-09-19T18:25:16.898Z,9.50
2018-09-19T18:27:45.177Z,8.85
2018-09-19T18:30:13.367Z,8.63
2018-09-19T18:32:41.615Z,8.23
2018-09-19T18:35:09.722Z,9.35
2018-09-19T18:37:38.121Z,9.65
2018-09-19T18:40:06.416Z,9.53
2018-09-19T18:42:35.438Z,10.85
2018-09-19T18:45:03.407Z,9.48
2018-09-19T18:47:31.470Z,9.60
2018-09-19T18:50:00.102Z,8.70
2018-09-19T18:52:28.371Z,10.30
2018-09-19T18:54:56.470Z,8.80
2018-09-19T18:57:24.779Z,8.95
2018-09-19T18:59:53.272Z,9.55
2018-09-19T19:02:21.505Z,9.93
2018-09-19T19:04:49.501Z,8.65
2018-09-19T19:07:17.540Z,8.38
2018-09-19T19:09:45.676Z,8.75
2018-09-19T19:12:13.856Z,8.95
2018-09-19T19:14:41.930Z,8.05
2018-09-19T19:17:09.971Z,8.45
2018-09-19T19:19:38.025Z,8.60
2018-09-19T19:22:06.005Z,8.68
2018-09-19T19:24:34.177Z,10.20
2018-09-19T19:27:02.206Z,8.85
2018-09-19T19:29:30.266Z,8.55
2018-09-19T19:31:58.450Z,8.65
2018-09-19T19:34:26.357Z,7.85
2018-09-19T19:36:55.453Z,8.60
2018-09-19T19:39:24.341Z,8.83
2018-09-19T19:41:52.386Z,8.43
2018-09-19T19:44:20.537Z,10.03
2018-09-19T19:46:48.607Z,9.10
2018-09-19T19:49:17.645Z,9.83
2018-09-19T19:51:45.593Z,10.90
2018-09-19T19:54:13.879Z,11.12
2018-09-19T19:56:41.946Z,11.68
2018-09-19T19:59:09.978Z,11.20
2018-09-19T20:01:38.017Z,12.82
2018-09-19T20:04:05.804Z,13.60
2018-09-19T20:06:35.143Z,13.80
2018-09-19T20:09:04.537Z,14.25
2018-09-19T20:11:32.804Z,14.23
2018-09-19T20:14:00.821Z,12.63
2018-09-19T20:16:30.212Z,13.15
2018-09-19T20:18:58.508Z,12.93
2018-09-19T20:21:26.516Z,12.63
2018-09-19T20:23:54.690Z,13.35
2018-09-19T20:26:23.058Z,12.70
2018-09-19T20:28:51.386Z,13.58
2018-09-19T20:31:19.350Z,12.45
2018-09-19T20:33:47.435Z,12.47
2018-09-19T20:36:15.225Z,11.53
2018-09-19T20:38:46.435Z,12.18
2018-09-19T20:41:14.563Z,12.95
2018-09-19T20:43:42.645Z,11.35
2018-09-19T20:46:11.046Z,11.35
2018-09-19T20:48:38.932Z,11.38
2018-09-19T20:51:07.142Z,11.22
2018-09-19T20:53:35.235Z,11.40
2018-09-19T20:56:03.233Z,11.45
2018-09-19T20:58:31.708Z,11.78
2018-09-19T21:00:59.593Z,11.25
2018-09-19T21:03:27.808Z,11.48
2018-09-19T21:05:55.841Z,11.53
2018-09-19T21:08:25.194Z,12.23
2018-09-19T21:10:53.264Z,11.95
2018-09-19T21:13:21.610Z,11.03
2018-09-19T21:15:49.691Z,11.22
2018-09-19T21:18:17.796Z,12.15
2018-09-19T21:20:45.802Z,10.72
2018-09-19T21:23:13.881Z,10.40
2018-09-19T21:25:42.007Z,11.80
2018-09-19T21:28:10.293Z,11.08
2018-09-19T21:30:38.697Z,11.48
2018-09-19T21:33:06.786Z,10.40
2018-09-19T21:35:34.975Z,10.98
2018-09-19T21:38:03.430Z,10.35
2018-09-19T21:40:32.531Z,11.08
2018-09-19T21:43:00.642Z,11.38
2018-09-19T21:45:28.671Z,11.08
2018-09-19T21:47:56.772Z,11.57
2018-09-19T21:50:24.869Z,11.38
2018-09-19T21:52:54.117Z,10.82
2018-09-19T21:55:22.172Z,9.78
2018-09-19T21:57:50.299Z,10.58
2018-09-19T22:00:18.372Z,9.85
2018-09-19T22:02:46.270Z,9.75
2018-09-19T22:05:14.480Z,9.05
2018-09-19T22:07:42.572Z,9.63
2018-09-19T22:10:11.281Z,9.40
2018-09-19T22:12:39.189Z,9.25
2018-09-19T22:15:07.325Z,8.38
2018-09-19T22:17:35.343Z,8.30
2018-09-19T22:20:03.132Z,7.05
2018-09-19T22:22:30.896Z,8.20
2018-09-19T22:24:58.935Z,8.10
2018-09-19T22:27:28.077Z,8.45
2018-09-19T22:29:56.928Z,8.10
2018-09-19T22:32:25.503Z,7.75
2018-09-19T22:34:53.410Z,7.05
2018-09-19T22:37:21.479Z,7.72
2018-09-19T22:39:49.639Z,8.13
2018-09-19T22:42:17.658Z,8.15
2018-09-19T22:44:45.757Z,8.50
2018-09-19T22:47:15.109Z,7.80
2018-09-19T22:49:43.449Z,7.40
2018-09-19T22:52:11.401Z,7.75
2018-09-19T22:54:39.557Z,7.72
2018-09-19T22:57:07.613Z,8.45
2018-09-19T22:59:35.593Z,8.00
2018-09-19T23:02:03.399Z,8.50
2018-09-19T23:04:31.390Z,7.90
2018-09-19T23:07:00.050Z,7.58
2018-09-19T23:09:27.899Z,7.80
2018-09-19T23:11:56.115Z,8.25
2018-09-19T23:14:24.141Z,7.87
2018-09-19T23:16:52.209Z,8.73
2018-09-19T23:19:20.313Z,8.95
2018-09-19T23:21:48.338Z,7.80
2018-09-19T23:24:16.318Z,8.15
2018-09-19T23:26:44.381Z,8.95
2018-09-19T23:29:12.661Z,10.10
2018-09-19T23:31:41.002Z,8.50
2018-09-19T23:34:08.917Z,8.98
2018-09-19T23:36:37.067Z,9.73
2018-09-19T23:39:06.468Z,9.43
2018-09-19T23:41:34.780Z,8.60
2018-09-19T23:44:02.553Z,8.30
2018-09-19T23:46:30.710Z,7.53
2018-09-19T23:48:59.912Z,8.50
2018-09-19T23:51:29.677Z,8.23
2018-09-19T23:53:57.497Z,7.80
2018-09-19T23:56:25.638Z,8.18
2018-09-19T23:58:53.731Z,8.03
